Etusivu
METAR-TAF:

METAR-TAF

Lentoasemat :

Grazin lentoasema

Graz, Itävalta

Leveyspiiri: 47-00N, Pituuspiiri: 015-26E, korkeus merenpinnasta: 340 m

Tämänhetkinen sää

Tämä raportti tehtiin 33 minuuttia sitten, kello 11.20 UTC
Tuuli 5 kn kaakosta, vaihdellen idän/koillisen ja etelän välillä
Lämpötila 28°C
Kosteus 45%
Ilmanpaine 1018 hPa
Näkyvyys 10 km tai enemmän

METAR: LOWG 181120Z AUTO 13005KT 060V190 9999 NCD 28/15 Q1018 NOSIG

Aika: 13:53 (11:53 UTC)

Sääennuste

Tämä raportti tehtiin 38 minuuttia sitten, kello 11.15 UTC
Ennuste voimassa 18. päivästä klo 12 UTC - 19. päivään klo 12 UTC
Tuuli 5 kn eri suunnista
Näkyvyys 10 km tai enemmän
Muutamia pilviä 6000 ft:n korkeudessa
Ajoittain
18. päivästä klo 12 UTC - 18. päivään klo 18 UTC
Tuuli 8 kn etelästä/kaakosta

TAF: LOWG 181115Z 1812/1912 VRB05KT 9999 FEW060 TX30/1912Z TN16/1903Z TEMPO 1812/1818 15008KT

Säähavainnot ja -ennusteet yli 4000 lentoasemalta (METAR- ja TAF-raportit).

Käytössä olevat sääasemat on merkitty karttaan keltaisilla ja punaisilla pisteillä.

Aseta hiiri pisteen päälle nähdäksesi sääaseman nimen.

Klikkaa sitten nähdäksesi säähavainnot ja -ennusteet.

Kartan vaihtaminen: klikkaa mustalla rastilla varustettuja vihreitä pisteitä, niin voit zoomata sisään; viivalla varustettua vihreää pistettä, niin voit zoomata ulos tai vihreitä nuolia, niin pääset viereisille kartoille.


METAR-TAF: